Santa Coloma de Cervello, Spain
Current Conditions -  °F | °C
As of 5:00 PM on Saturday 25 Oct 2014 (Local Time) from LEBL Reporting Station
Clear Clear  
Wind Chill: 75°   Ceiling: Unl
Heat Index: 75°   Visibility: 6mi
Dew Point: 61°   Wind: 9mph
Humidity: 61%   Direction: 190°S
Pressure: 30.06"   Gusts: NA
Location:  41.37°N, 2.01°E
Report Text: LEBL 251500Z 19008KT CAVOK 24/16 Q1018 NOSIG
Loading
Personal Weather Stations






























Interactive Weather Map
Tropical Storm Tracking
New forecast layout! Learn more

10-Day Weather Forecast

Advertisements
Track Severe Weather on mobile